createdAt,value
2018-09-24T00:02:21.408Z,6.50
2018-09-24T00:04:49.617Z,5.93
2018-09-24T00:07:17.712Z,6.13
2018-09-24T00:09:45.883Z,5.83
2018-09-24T00:12:14.009Z,6.00
2018-09-24T00:14:42.858Z,5.50
2018-09-24T00:17:11.009Z,6.70
2018-09-24T00:19:39.143Z,6.47
2018-09-24T00:22:07.260Z,6.50
2018-09-24T00:24:35.487Z,4.87
2018-09-24T00:27:03.656Z,4.90
2018-09-24T00:29:32.489Z,5.93
2018-09-24T00:32:00.653Z,4.70
2018-09-24T00:34:28.892Z,4.57
2018-09-24T00:36:57.015Z,4.40
2018-09-24T00:39:25.208Z,4.00
2018-09-24T00:41:53.416Z,4.13
2018-09-24T00:44:21.562Z,4.00
2018-09-24T00:46:49.739Z,4.83
2018-09-24T00:49:18.442Z,4.70
2018-09-24T00:51:46.626Z,3.90
2018-09-24T00:54:14.725Z,4.07
2018-09-24T00:56:42.873Z,4.30
2018-09-24T00:59:11.010Z,3.90
2018-09-24T01:01:39.171Z,3.73
2018-09-24T01:04:07.353Z,3.07
2018-09-24T01:06:35.515Z,3.00
2018-09-24T01:09:03.712Z,3.20
2018-09-24T01:11:31.852Z,2.90
2018-09-24T01:14:00.403Z,3.10
2018-09-24T01:16:29.207Z,3.20
2018-09-24T01:18:57.376Z,3.00
2018-09-24T01:21:25.665Z,3.23
2018-09-24T01:23:54.576Z,2.77
2018-09-24T01:26:22.744Z,2.57
2018-09-24T01:28:50.850Z,2.50
2018-09-24T01:31:18.995Z,2.77
2018-09-24T01:33:47.125Z,2.63
2018-09-24T01:36:15.251Z,2.60
2018-09-24T01:41:28.123Z,2.63
2018-09-24T01:43:56.221Z,2.30
2018-09-24T01:46:24.354Z,2.03
2018-09-24T01:48:52.450Z,2.10
2018-09-24T01:51:20.585Z,2.33
2018-09-24T01:53:49.005Z,2.23
2018-09-24T01:56:17.132Z,2.20
2018-09-24T01:58:45.270Z,2.23
2018-09-24T02:01:13.373Z,2.00
2018-09-24T02:03:41.498Z,2.33
2018-09-24T02:06:09.612Z,2.20
2018-09-24T02:08:40.571Z,2.93
2018-09-24T02:11:08.745Z,1.87
2018-09-24T02:13:36.851Z,1.70
2018-09-24T02:16:04.982Z,1.90
2018-09-24T02:18:33.083Z,2.33
2018-09-24T02:21:01.272Z,2.30
2018-09-24T02:23:29.445Z,1.90
2018-09-24T02:25:57.613Z,1.90
2018-09-24T02:28:28.551Z,2.10
2018-09-24T02:30:56.641Z,1.90
2018-09-24T02:33:24.735Z,1.83
2018-09-24T02:35:52.840Z,2.10
2018-09-24T02:38:20.946Z,2.37
2018-09-24T02:40:49.163Z,1.87
2018-09-24T02:43:22.728Z,2.33
2018-09-24T02:45:50.864Z,2.00
2018-09-24T02:48:18.964Z,1.80
2018-09-24T02:50:47.073Z,2.27
2018-09-24T02:53:15.155Z,1.90
2018-09-24T02:55:43.260Z,1.80
2018-09-24T02:58:19.831Z,2.23
2018-09-24T03:00:48.169Z,1.83
2018-09-24T03:03:16.315Z,2.23
2018-09-24T03:05:44.743Z,1.80
2018-09-24T03:08:14.584Z,2.10
2018-09-24T03:10:42.876Z,2.30
2018-09-24T03:13:10.991Z,1.83
2018-09-24T03:15:40.999Z,1.83
2018-09-24T03:18:09.797Z,2.00
2018-09-24T03:20:43.500Z,2.00
2018-09-24T03:23:11.644Z,1.67
2018-09-24T03:25:40.165Z,2.07
2018-09-24T03:28:08.260Z,1.70
2018-09-24T03:30:38.054Z,1.70
2018-09-24T03:33:06.168Z,1.90
2018-09-24T03:35:34.682Z,1.93
2018-09-24T03:38:02.831Z,2.17
2018-09-24T03:40:31.247Z,2.23
2018-09-24T03:42:59.669Z,1.93
2018-09-24T03:45:28.705Z,1.97
2018-09-24T03:47:57.131Z,1.83
2018-09-24T03:50:25.251Z,1.67
2018-09-24T03:52:56.333Z,2.20
2018-09-24T03:55:24.479Z,1.90
2018-09-24T03:57:52.575Z,1.83
2018-09-24T04:00:20.729Z,2.10
2018-09-24T04:02:48.916Z,1.70
2018-09-24T04:05:32.093Z,1.87
2018-09-24T04:08:05.833Z,1.83
2018-09-24T04:10:39.475Z,1.70
2018-09-24T04:13:13.048Z,1.63
2018-09-24T04:15:46.493Z,2.00
2018-09-24T04:18:20.055Z,1.70
2018-09-24T04:20:53.680Z,1.93
2018-09-24T04:23:27.495Z,2.00
2018-09-24T04:26:01.204Z,1.60
2018-09-24T04:28:35.121Z,1.53
2018-09-24T04:31:08.625Z,1.80
2018-09-24T04:33:42.198Z,2.00
2018-09-24T04:36:16.056Z,1.63
2018-09-24T04:38:49.666Z,1.60
2018-09-24T04:41:23.531Z,1.60
2018-09-24T04:43:57.317Z,1.40
2018-09-24T04:46:30.859Z,1.50
2018-09-24T04:49:04.529Z,1.50
2018-09-24T04:51:38.212Z,1.50
2018-09-24T04:54:11.862Z,1.70
2018-09-24T04:56:45.450Z,1.97
2018-09-24T04:59:19.048Z,1.80
2018-09-24T05:01:53.035Z,1.47
2018-09-24T05:04:26.786Z,1.20
2018-09-24T05:07:00.375Z,1.23
2018-09-24T05:09:33.977Z,1.87
2018-09-24T05:12:07.580Z,1.50
2018-09-24T05:14:41.063Z,1.70
2018-09-24T05:17:14.637Z,1.90
2018-09-24T05:19:48.343Z,1.70
2018-09-24T05:22:21.851Z,1.67
2018-09-24T05:24:55.360Z,1.70
2018-09-24T05:27:29.289Z,1.43
2018-09-24T05:30:03.022Z,1.77
2018-09-24T05:32:36.487Z,1.53
2018-09-24T05:35:10.088Z,1.93
2018-09-24T05:37:43.689Z,1.90
2018-09-24T05:40:17.206Z,1.47
2018-09-24T05:42:50.937Z,1.63
2018-09-24T05:45:24.596Z,1.70
2018-09-24T05:47:58.289Z,1.70
2018-09-24T05:50:32.072Z,1.50
2018-09-24T05:53:05.668Z,1.53
2018-09-24T05:55:39.196Z,1.57
2018-09-24T05:58:12.767Z,1.80
2018-09-24T06:00:46.522Z,1.40
2018-09-24T06:03:20.313Z,2.43
2018-09-24T06:05:53.911Z,1.80
2018-09-24T06:08:27.598Z,1.60
2018-09-24T06:11:01.230Z,1.73
2018-09-24T06:13:34.928Z,1.23
2018-09-24T06:16:09.229Z,1.73
2018-09-24T06:18:43.044Z,2.30
2018-09-24T06:21:16.635Z,2.20
2018-09-24T06:23:50.230Z,1.50
2018-09-24T06:26:24.555Z,2.67
2018-09-24T06:28:58.177Z,2.10
2018-09-24T06:31:31.729Z,1.93
2018-09-24T06:34:05.375Z,1.93
2018-09-24T06:36:38.943Z,1.90
2018-09-24T06:39:13.225Z,2.27
2018-09-24T06:41:46.762Z,1.57
2018-09-24T06:44:20.330Z,1.70
2018-09-24T06:46:53.872Z,2.17
2018-09-24T06:49:27.412Z,1.90
2018-09-24T06:52:00.992Z,2.20
2018-09-24T06:54:34.777Z,1.60
2018-09-24T06:57:08.368Z,2.27
2018-09-24T06:59:42.035Z,2.07
2018-09-24T07:02:15.568Z,2.07
2018-09-24T07:04:50.198Z,1.90
2018-09-24T07:07:24.132Z,1.93
2018-09-24T07:09:57.920Z,1.87
2018-09-24T07:12:32.200Z,1.93
2018-09-24T07:15:05.780Z,1.83
2018-09-24T07:17:39.546Z,2.00
2018-09-24T07:20:13.093Z,1.97
2018-09-24T07:22:46.803Z,2.00
2018-09-24T07:25:20.408Z,1.80
2018-09-24T07:27:54.115Z,1.93
2018-09-24T07:30:28.282Z,2.73
2018-09-24T07:33:01.975Z,1.87
2018-09-24T07:35:35.548Z,2.17
2018-09-24T07:38:09.112Z,1.90
2018-09-24T07:40:42.933Z,2.33
2018-09-24T07:43:17.624Z,2.17
2018-09-24T07:45:51.283Z,1.97
2018-09-24T07:48:25.199Z,2.30
2018-09-24T07:50:59.616Z,2.00
2018-09-24T07:53:33.236Z,2.07
2018-09-24T07:56:06.999Z,1.73
2018-09-24T07:58:40.723Z,2.00
2018-09-24T08:01:15.052Z,2.00
2018-09-24T08:03:48.498Z,2.17
2018-09-24T08:06:22.247Z,2.33
2018-09-24T08:08:56.024Z,2.00
2018-09-24T08:11:29.799Z,2.10
2018-09-24T08:14:06.339Z,2.20
2018-09-24T08:16:39.912Z,2.10
2018-09-24T08:19:13.553Z,2.70
2018-09-24T08:21:47.241Z,1.77
2018-09-24T08:24:21.015Z,1.80
2018-09-24T08:26:54.731Z,1.80
2018-09-24T08:29:28.453Z,2.53
2018-09-24T08:32:02.180Z,1.97
2018-09-24T08:34:35.760Z,2.23
2018-09-24T08:37:09.417Z,2.27
2018-09-24T08:39:43.016Z,2.00
2018-09-24T08:42:16.552Z,2.40
2018-09-24T08:44:50.255Z,2.13
2018-09-24T08:47:23.899Z,2.33
2018-09-24T08:49:57.561Z,1.97
2018-09-24T08:52:32.083Z,1.87
2018-09-24T08:55:06.475Z,1.90
2018-09-24T08:57:40.787Z,1.57
2018-09-24T09:00:14.802Z,1.97
2018-09-24T09:02:48.930Z,1.90
2018-09-24T09:05:22.521Z,2.00
2018-09-24T09:07:56.200Z,1.90
2018-09-24T09:10:29.976Z,1.60
2018-09-24T09:13:03.531Z,1.70
2018-09-24T09:15:37.172Z,2.30
2018-09-24T09:18:10.849Z,1.90
2018-09-24T09:20:44.326Z,2.00
2018-09-24T09:23:17.930Z,2.07
2018-09-24T09:25:51.480Z,1.90
2018-09-24T09:28:25.885Z,2.00
2018-09-24T09:30:59.775Z,2.20
2018-09-24T09:33:33.370Z,1.80
2018-09-24T09:36:07.060Z,2.07
2018-09-24T09:38:40.628Z,1.73
2018-09-24T09:41:14.224Z,1.80
2018-09-24T09:43:47.676Z,1.70
2018-09-24T09:46:22.064Z,1.83
2018-09-24T09:48:55.649Z,1.90
2018-09-24T09:51:29.375Z,1.97
2018-09-24T09:54:02.931Z,1.90
2018-09-24T09:56:36.540Z,1.60
2018-09-24T09:59:10.049Z,2.00
2018-09-24T10:01:43.668Z,2.07
2018-09-24T10:04:17.303Z,1.80
2018-09-24T10:06:50.869Z,1.80
2018-09-24T10:09:24.633Z,1.77
2018-09-24T10:11:58.434Z,1.80
2018-09-24T10:14:32.100Z,1.67
2018-09-24T10:17:05.658Z,2.10
2018-09-24T10:19:39.282Z,1.40
2018-09-24T10:22:13.143Z,1.73
2018-09-24T10:24:46.767Z,2.10
2018-09-24T10:27:20.622Z,1.80
2018-09-24T10:29:55.442Z,1.63
2018-09-24T10:32:29.223Z,1.60
2018-09-24T10:35:02.813Z,1.97
2018-09-24T10:37:36.489Z,1.50
2018-09-24T10:40:10.432Z,1.70
2018-09-24T10:42:44.023Z,2.30
2018-09-24T10:45:17.614Z,1.80
2018-09-24T10:47:51.912Z,1.97
2018-09-24T10:50:25.536Z,1.40
2018-09-24T10:52:59.161Z,1.50
2018-09-24T10:55:32.701Z,1.30
2018-09-24T10:58:07.157Z,1.40
2018-09-24T11:00:40.846Z,1.30
2018-09-24T11:03:15.182Z,1.43
2018-09-24T11:05:48.780Z,1.70
2018-09-24T11:08:22.413Z,1.53
2018-09-24T11:10:56.121Z,1.37
2018-09-24T11:13:29.952Z,1.50
2018-09-24T11:16:03.934Z,1.63
2018-09-24T11:18:37.748Z,1.90
2018-09-24T11:21:11.277Z,1.37
2018-09-24T11:23:45.213Z,1.70
2018-09-24T11:28:52.486Z,1.60
2018-09-24T11:31:26.101Z,1.37
2018-09-24T11:33:59.993Z,1.40
2018-09-24T11:36:34.308Z,2.07
2018-09-24T11:39:08.285Z,1.50
2018-09-24T11:41:42.041Z,1.30
2018-09-24T11:44:15.554Z,1.40
2018-09-24T11:46:49.176Z,1.20
2018-09-24T11:49:22.728Z,0.90
2018-09-24T11:51:56.247Z,0.87
2018-09-24T11:54:30.009Z,1.00
2018-09-24T11:57:03.825Z,1.00
2018-09-24T11:59:37.341Z,1.43
2018-09-24T12:02:11.071Z,1.43
2018-09-24T12:04:45.102Z,1.10
2018-09-24T12:07:19.569Z,1.17
2018-09-24T12:09:53.385Z,1.70
2018-09-24T12:12:27.317Z,1.37
2018-09-24T12:15:01.296Z,1.13
2018-09-24T12:17:35.210Z,1.23
2018-09-24T12:20:08.960Z,1.07
2018-09-24T12:22:42.793Z,1.00
2018-09-24T12:25:17.185Z,1.10
2018-09-24T12:27:50.903Z,1.10
2018-09-24T12:30:24.755Z,1.50
2018-09-24T12:32:58.540Z,1.70
2018-09-24T12:35:32.339Z,1.17
2018-09-24T12:38:06.049Z,1.17
2018-09-24T12:40:40.437Z,5.07
2018-09-24T12:43:14.476Z,1.37
2018-09-24T12:45:48.111Z,1.30
2018-09-24T12:48:21.663Z,1.70
2018-09-24T12:50:55.311Z,1.30
2018-09-24T12:53:28.923Z,1.13
2018-09-24T12:56:02.787Z,1.20
2018-09-24T12:58:36.344Z,1.40
2018-09-24T13:01:09.808Z,2.20
2018-09-24T13:03:43.437Z,1.43
2018-09-24T13:06:17.221Z,1.37
2018-09-24T13:08:51.068Z,1.20
2018-09-24T13:11:24.792Z,1.27
2018-09-24T13:13:58.485Z,1.40
2018-09-24T13:16:32.196Z,1.37
2018-09-24T13:19:05.734Z,1.23
2018-09-24T13:21:39.318Z,1.60
2018-09-24T13:24:13.267Z,1.20
2018-09-24T13:26:46.850Z,1.67
2018-09-24T13:29:20.607Z,1.60
2018-09-24T13:31:54.164Z,1.53
2018-09-24T13:34:27.888Z,1.70
2018-09-24T13:37:01.641Z,1.67
2018-09-24T13:39:35.402Z,1.50
2018-09-24T13:42:09.405Z,1.57
2018-09-24T13:44:43.268Z,1.60
2018-09-24T13:47:17.220Z,1.30
2018-09-24T13:49:50.991Z,2.50
2018-09-24T13:52:24.815Z,1.37
2018-09-24T13:54:58.640Z,2.00
2018-09-24T13:57:32.516Z,3.47
2018-09-24T14:00:06.204Z,3.03
2018-09-24T14:02:42.418Z,1.83
2018-09-24T14:05:18.102Z,1.70
2018-09-24T14:10:31.619Z,1.60
2018-09-24T14:13:05.742Z,2.33
2018-09-24T14:15:39.517Z,1.60
2018-09-24T14:18:13.155Z,1.70
2018-09-24T14:20:50.013Z,1.40
2018-09-24T14:23:23.598Z,2.53
2018-09-24T14:25:57.391Z,1.60
2018-09-24T14:28:31.338Z,2.20
2018-09-24T14:31:05.408Z,2.07
2018-09-24T14:33:39.143Z,1.80
2018-09-24T14:36:12.884Z,1.87
2018-09-24T14:38:46.589Z,1.90
2018-09-24T14:41:20.336Z,1.40
2018-09-24T14:43:54.014Z,1.40
2018-09-24T14:46:27.856Z,1.50
2018-09-24T14:49:02.688Z,1.30
2018-09-24T14:51:36.781Z,1.10
2018-09-24T14:54:11.191Z,1.40
2018-09-24T14:56:44.903Z,1.53
2018-09-24T14:59:18.501Z,1.20
2018-09-24T15:01:52.391Z,1.37
2018-09-24T15:04:26.351Z,1.17
2018-09-24T15:07:00.255Z,1.73
2018-09-24T15:09:34.260Z,1.27
2018-09-24T15:12:08.388Z,1.50
2018-09-24T15:14:42.247Z,1.30
2018-09-24T15:17:16.229Z,1.10
2018-09-24T15:19:50.025Z,1.40
2018-09-24T15:22:23.698Z,1.37
2018-09-24T15:24:57.321Z,1.60
2018-09-24T15:27:31.092Z,1.50
2018-09-24T15:30:04.935Z,1.50
2018-09-24T15:35:20.993Z,1.50
2018-09-24T15:37:54.618Z,1.30
2018-09-24T15:40:28.417Z,1.30
2018-09-24T15:43:02.203Z,1.50
2018-09-24T15:45:36.137Z,1.70
2018-09-24T15:48:10.518Z,1.60
2018-09-24T15:50:44.752Z,1.37
2018-09-24T15:53:18.465Z,1.57
2018-09-24T15:55:52.069Z,1.47
2018-09-24T15:58:25.639Z,1.30
2018-09-24T16:00:59.140Z,1.73
2018-09-24T16:03:32.683Z,2.00
2018-09-24T16:06:06.905Z,1.67
2018-09-24T16:08:40.608Z,1.77
2018-09-24T16:11:14.321Z,1.90
2018-09-24T16:13:47.882Z,1.50
2018-09-24T16:16:21.503Z,1.40
2018-09-24T16:18:55.060Z,1.90
2018-09-24T16:21:28.576Z,1.90
2018-09-24T16:24:02.924Z,1.80
2018-09-24T16:26:36.627Z,1.53
2018-09-24T16:29:10.499Z,1.93
2018-09-24T16:31:44.127Z,1.80
2018-09-24T16:34:17.824Z,2.00
2018-09-24T16:36:51.708Z,1.83
2018-09-24T16:39:25.245Z,1.50
2018-09-24T16:41:58.805Z,2.50
2018-09-24T16:44:32.549Z,2.70
2018-09-24T16:47:06.139Z,1.97
2018-09-24T16:49:39.806Z,2.00
2018-09-24T16:52:13.443Z,2.27
2018-09-24T16:54:47.049Z,2.23
2018-09-24T16:57:20.521Z,1.53
2018-09-24T16:59:54.156Z,1.60
2018-09-24T17:02:27.719Z,1.73
2018-09-24T17:05:02.488Z,1.80
2018-09-24T17:07:35.944Z,1.90
2018-09-24T17:10:09.473Z,1.83
2018-09-24T17:12:43.163Z,2.23
2018-09-24T17:15:16.683Z,1.93
2018-09-24T17:17:50.243Z,2.13
2018-09-24T17:20:23.757Z,1.67
2018-09-24T17:22:57.359Z,1.50
2018-09-24T17:25:31.105Z,1.50
2018-09-24T17:28:04.603Z,1.37
2018-09-24T17:30:38.324Z,1.83
2018-09-24T17:33:11.978Z,1.40
2018-09-24T17:35:45.677Z,1.70
2018-09-24T17:38:19.281Z,1.70
2018-09-24T17:40:52.839Z,1.40
2018-09-24T17:43:26.704Z,1.80
2018-09-24T17:46:00.308Z,1.60
2018-09-24T17:48:34.157Z,1.60
2018-09-24T17:51:07.824Z,1.90
2018-09-24T17:53:41.492Z,1.93
2018-09-24T17:56:15.375Z,1.87
2018-09-24T17:58:49.111Z,1.40
2018-09-24T18:01:22.819Z,1.77
2018-09-24T18:04:04.396Z,1.50
2018-09-24T18:06:37.978Z,2.10
2018-09-24T18:09:12.156Z,1.90
2018-09-24T18:11:46.202Z,1.50
2018-09-24T18:14:19.945Z,1.90
2018-09-24T18:16:53.412Z,2.67
2018-09-24T18:19:27.109Z,1.70
2018-09-24T18:22:00.705Z,2.00
2018-09-24T18:24:34.259Z,1.60
2018-09-24T18:27:08.029Z,1.97
2018-09-24T18:29:41.557Z,1.47
2018-09-24T18:32:15.118Z,1.50
2018-09-24T18:34:48.835Z,1.13
2018-09-24T18:37:22.493Z,1.50
2018-09-24T18:39:56.028Z,1.87
2018-09-24T18:42:29.747Z,1.60
2018-09-24T18:45:03.467Z,1.60
2018-09-24T18:47:37.328Z,1.40
2018-09-24T18:50:11.171Z,4.13
2018-09-24T18:52:44.945Z,3.70
2018-09-24T18:55:18.523Z,1.97
2018-09-24T18:57:52.783Z,2.37
2018-09-24T19:00:26.300Z,3.10
2018-09-24T19:03:00.045Z,2.70
2018-09-24T19:05:33.790Z,2.67
2018-09-24T19:08:07.570Z,2.13
2018-09-24T19:10:41.143Z,2.80
2018-09-24T19:13:14.791Z,2.70
2018-09-24T19:15:48.636Z,1.90
2018-09-24T19:18:22.432Z,1.90
2018-09-24T19:20:56.407Z,2.73
2018-09-24T19:23:30.016Z,2.73
2018-09-24T19:26:03.596Z,2.70
2018-09-24T19:28:37.204Z,1.70
2018-09-24T19:31:11.018Z,2.50
2018-09-24T19:33:44.673Z,2.17
2018-09-24T19:36:18.287Z,1.63
2018-09-24T19:38:51.896Z,1.80
2018-09-24T19:41:25.450Z,2.10
2018-09-24T19:43:59.177Z,1.50
2018-09-24T19:46:32.927Z,1.60
2018-09-24T19:49:06.628Z,1.77
2018-09-24T19:51:40.311Z,1.53
2018-09-24T19:54:14.013Z,1.97
2018-09-24T19:56:57.558Z,1.80
2018-09-24T19:59:32.195Z,1.77
2018-09-24T20:02:05.662Z,2.10
2018-09-24T20:04:39.447Z,1.40
2018-09-24T20:07:12.954Z,1.40
2018-09-24T20:09:46.793Z,1.43
2018-09-24T20:12:20.614Z,1.80
2018-09-24T20:14:54.454Z,1.60
2018-09-24T20:17:28.101Z,1.63
2018-09-24T20:20:02.134Z,2.40
2018-09-24T20:22:35.796Z,1.53
2018-09-24T20:25:09.597Z,1.60
2018-09-24T20:27:43.977Z,2.33
2018-09-24T20:30:18.027Z,1.90
2018-09-24T20:32:51.759Z,1.70
2018-09-24T20:35:25.510Z,1.60
2018-09-24T20:37:59.739Z,2.10
2018-09-24T20:40:33.817Z,1.50
2018-09-24T20:43:08.364Z,1.47
2018-09-24T20:45:42.093Z,2.30
2018-09-24T20:48:15.715Z,1.70
2018-09-24T20:50:49.468Z,1.80
2018-09-24T20:53:22.978Z,1.33
2018-09-24T20:55:56.520Z,1.20
2018-09-24T20:58:30.832Z,1.40
2018-09-24T21:01:04.515Z,1.30
2018-09-24T21:03:38.776Z,1.20
2018-09-24T21:06:13.321Z,2.30
2018-09-24T21:08:46.923Z,1.50
2018-09-24T21:11:20.680Z,1.30
2018-09-24T21:13:54.524Z,1.17
2018-09-24T21:16:28.273Z,2.03
2018-09-24T21:19:01.989Z,1.60
2018-09-24T21:21:35.759Z,1.60
2018-09-24T21:24:09.354Z,1.30
2018-09-24T21:26:43.173Z,1.67
2018-09-24T21:29:16.755Z,1.40
2018-09-24T21:31:50.378Z,1.50
2018-09-24T21:34:23.940Z,1.57
2018-09-24T21:36:57.660Z,1.40
2018-09-24T21:39:31.250Z,1.43
2018-09-24T21:42:05.025Z,1.73
2018-09-24T21:44:38.772Z,1.70
2018-09-24T21:47:12.577Z,1.30
2018-09-24T21:49:46.215Z,1.63
2018-09-24T21:52:20.225Z,1.43
2018-09-24T21:54:53.899Z,1.50
2018-09-24T21:57:27.521Z,1.33
2018-09-24T22:00:01.341Z,1.63
2018-09-24T22:02:34.889Z,1.73
2018-09-24T22:05:08.553Z,1.63
2018-09-24T22:07:42.123Z,1.67
2018-09-24T22:10:15.891Z,1.40
2018-09-24T22:12:49.460Z,1.80
2018-09-24T22:15:23.011Z,2.00
2018-09-24T22:17:56.607Z,1.60
2018-09-24T22:20:30.202Z,1.40
2018-09-24T22:23:03.756Z,1.67
2018-09-24T22:25:37.517Z,1.90
2018-09-24T22:28:11.282Z,1.90
2018-09-24T22:30:44.886Z,1.60
2018-09-24T22:33:18.566Z,1.60
2018-09-24T22:35:52.258Z,1.60
2018-09-24T22:38:25.747Z,1.60
2018-09-24T22:40:59.397Z,1.50
2018-09-24T22:43:32.931Z,1.40
2018-09-24T22:46:07.275Z,1.87
2018-09-24T22:48:40.827Z,1.50
2018-09-24T22:51:14.566Z,1.50
2018-09-24T22:53:48.240Z,1.60
2018-09-24T22:56:22.036Z,1.57
2018-09-24T22:58:55.551Z,1.53
2018-09-24T23:01:29.211Z,1.23
2018-09-24T23:04:02.964Z,1.50
2018-09-24T23:06:36.685Z,1.30
2018-09-24T23:09:11.648Z,1.70
2018-09-24T23:11:45.400Z,1.47
2018-09-24T23:14:18.955Z,1.90
2018-09-24T23:16:52.678Z,1.60
2018-09-24T23:19:26.296Z,1.70
2018-09-24T23:22:00.390Z,1.50
2018-09-24T23:24:33.971Z,2.53
2018-09-24T23:27:07.611Z,3.00
2018-09-24T23:29:41.201Z,2.20
2018-09-24T23:32:14.796Z,1.33
2018-09-24T23:34:48.424Z,1.87
2018-09-24T23:37:21.940Z,1.60
2018-09-24T23:39:55.718Z,2.17
2018-09-24T23:42:29.372Z,1.80
2018-09-24T23:45:02.951Z,1.90
2018-09-24T23:47:36.546Z,1.60
2018-09-24T23:50:10.588Z,1.40
2018-09-24T23:52:44.240Z,1.50
2018-09-24T23:55:17.950Z,1.40
2018-09-24T23:57:51.384Z,1.60
